Time;durP1;ratioP1;P1;durP2;ratioP2;P2;SDS_P1;SDS_P2;PMS_P1;PMS_P2;Temp;Humidity;BMP_temperature;BMP_pressure;BME280_temperature;BME280_humidity;BME280_pressure;Samples;Min_cycle;Max_cycle;Signal;HPM_P1;HPM_P2
2021/11/17 02:28:20;;;;;;;35.88;19.83;;;;;;;7.78;83.08;100866.94;5024315;28;20537;-85
2021/11/17 02:31:11;;;;;;;38.25;20.55;;;;;;;7.75;83.29;100865.50;5031022;28;20411;-85
2021/11/17 02:33:55;;;;;;;37.55;20.45;;;;;;;7.76;83.40;100874.44;4984342;28;20778;-86
2021/11/17 02:36:42;;;;;;;37.10;20.63;;;;;;;7.74;83.58;100869.25;5030299;28;20478;-86
2021/11/17 02:39:44;;;;;;;32.13;18.33;;;;;;;7.76;83.49;100863.63;5031144;28;20441;-86
2021/11/17 02:42:49;;;;;;;38.53;21.55;;;;;;;7.75;83.57;100864.69;5029873;28;20824;-85
2021/11/17 02:45:36;;;;;;;48.97;25.40;;;;;;;7.72;83.36;100860.53;4995041;28;20452;-86
2021/11/17 02:48:13;;;;;;;74.82;35.30;;;;;;;7.68;83.41;100863.88;5029269;28;20407;-85
2021/11/17 02:51:15;;;;;;;45.75;23.13;;;;;;;7.64;83.54;100868.06;5031131;28;20870;-86
2021/11/17 02:54:20;;;;;;;39.30;21.57;;;;;;;7.68;83.86;100861.19;5029980;28;20449;-86
2021/11/17 02:57:29;;;;;;;40.10;22.50;;;;;;;7.71;82.94;100856.19;5008869;28;20457;-86
2021/11/17 03:00:20;;;;;;;33.13;17.70;;;;;;;7.67;83.48;100840.66;5029929;28;20488;-86
2021/11/17 03:03:09;;;;;;;32.17;18.85;;;;;;;7.69;82.97;100854.75;5030892;28;20395;-86
2021/11/17 03:05:44;;;;;;;32.00;17.13;;;;;;;7.72;82.84;100848.94;5012980;28;20426;-86
2021/11/17 03:08:24;;;;;;;31.80;17.45;;;;;;;7.70;82.98;100853.72;5029210;28;20453;-86
2021/11/17 03:11:17;;;;;;;30.52;17.23;;;;;;;7.71;83.38;100850.78;5031188;28;20417;-86
2021/11/17 03:13:51;;;;;;;29.65;16.75;;;;;;;7.72;83.16;100849.75;5033471;28;20426;-86
2021/11/17 03:16:42;;;;;;;33.30;17.63;;;;;;;7.73;82.91;100854.13;5034334;28;20409;-86
2021/11/17 03:19:43;;;;;;;30.73;16.50;;;;;;;7.76;82.72;100852.84;5013716;28;20950;-86
2021/11/17 03:23:02;;;;;;;31.92;16.77;;;;;;;7.77;82.91;100852.63;5008986;28;20416;-86
2021/11/17 03:25:48;;;;;;;28.88;16.40;;;;;;;7.78;82.61;100840.78;4965751;28;20420;-86
2021/11/17 03:28:39;;;;;;;29.45;16.10;;;;;;;7.75;83.00;100849.31;5033335;28;20395;-87
2021/11/17 03:31:41;;;;;;;29.52;17.00;;;;;;;7.73;82.66;100843.31;5033932;28;20445;-86
2021/11/17 03:34:43;;;;;;;29.00;15.70;;;;;;;7.75;82.64;100848.47;5034055;28;20414;-85
2021/11/17 03:37:39;;;;;;;30.60;16.65;;;;;;;7.74;83.32;100850.34;5024745;28;20399;-86
2021/11/17 03:40:30;;;;;;;31.93;16.70;;;;;;;7.76;83.08;100858.25;5032791;28;20434;-86
2021/11/17 03:43:17;;;;;;;27.63;15.77;;;;;;;7.81;82.89;100853.84;5033329;28;20433;-85
2021/11/17 03:46:00;;;;;;;31.03;16.13;;;;;;;7.74;83.21;100857.63;5033856;28;20418;-86
2021/11/17 03:48:37;;;;;;;26.85;15.48;;;;;;;7.73;82.45;100855.97;5034174;28;20391;-86
2021/11/17 03:51:24;;;;;;;28.50;15.13;;;;;;;7.73;82.80;100862.22;5033278;28;20411;-86
2021/11/17 03:54:19;;;;;;;25.92;15.18;;;;;;;7.66;83.04;100861.41;5000047;28;20456;-86
2021/11/17 03:57:25;;;;;;;28.10;15.93;;;;;;;7.65;83.29;100870.53;5028625;28;20419;-86
2021/11/17 04:00:16;;;;;;;26.00;14.93;;;;;;;7.69;82.91;100868.25;5017546;28;20403;-86
2021/11/17 04:03:10;;;;;;;25.42;14.65;;;;;;;7.71;83.06;100875.06;5031923;28;20921;-86
2021/11/17 04:05:41;;;;;;;27.27;15.73;;;;;;;7.71;82.85;100872.38;5015168;28;20426;-86
2021/11/17 04:08:12;;;;;;;26.25;14.45;;;;;;;7.71;82.61;100876.94;5031534;28;20477;-85
2021/11/17 04:11:00;;;;;;;24.10;14.00;;;;;;;7.69;82.64;100873.63;5032416;28;20399;-86
2021/11/17 04:13:50;;;;;;;29.55;16.00;;;;;;;7.67;82.37;100871.13;5033576;28;20440;-86
2021/11/17 04:16:21;;;;;;;26.52;15.38;;;;;;;7.69;82.97;100870.94;5014618;28;20399;-86
2021/11/17 04:19:13;;;;;;;28.27;15.45;;;;;;;7.76;82.57;100869.88;5032865;28;20481;-87
2021/11/17 04:22:00;;;;;;;29.15;15.45;;;;;;;7.73;82.20;100866.78;5020530;28;20435;-86
2021/11/17 04:24:59;;;;;;;24.35;13.50;;;;;;;7.76;82.09;100869.03;5032255;28;20438;-86
2021/11/17 04:27:30;;;;;;;27.85;14.75;;;;;;;7.75;82.44;100873.59;5003286;28;20403;-85
2021/11/17 04:30:07;;;;;;;28.47;14.30;;;;;;;7.75;82.17;100865.50;5031311;28;20476;-86
2021/11/17 04:32:53;;;;;;;25.63;14.10;;;;;;;7.73;82.34;100872.16;5033183;28;20460;-86
2021/11/17 04:35:44;;;;;;;28.55;13.63;;;;;;;7.73;82.46;100878.41;5018475;28;20834;-85
2021/11/17 04:38:15;;;;;;;25.13;14.43;;;;;;;7.72;82.41;100874.03;5027920;28;20407;-86
2021/11/17 04:40:43;;;;;;;27.30;13.43;;;;;;;7.70;82.48;100870.75;5033237;28;20870;-86
2021/11/17 04:43:17;;;;;;;28.00;14.27;;;;;;;7.62;82.50;100859.34;5026828;28;20410;-86
2021/11/17 04:46:07;;;;;;;27.55;14.40;;;;;;;7.62;82.61;100872.84;5033111;28;20428;-86
2021/11/17 04:49:07;;;;;;;25.88;14.18;;;;;;;7.63;82.64;100874.50;5031105;28;20407;-86
2021/11/17 04:51:50;;;;;;;25.07;13.90;;;;;;;7.64;82.06;100871.56;5031610;28;20395;-86
2021/11/17 04:54:37;;;;;;;24.25;13.52;;;;;;;7.66;82.69;100877.59;5028511;28;20419;-86
2021/11/17 04:57:15;;;;;;;21.98;12.40;;;;;;;7.66;82.23;100874.91;5032231;28;20411;-86
2021/11/17 04:59:43;;;;;;;23.25;13.15;;;;;;;7.65;82.29;100881.34;5033012;28;20464;-86
2021/11/17 05:02:39;;;;;;;28.92;14.23;;;;;;;7.64;82.45;100881.56;5030396;28;20457;-87
2021/11/17 05:05:45;;;;;;;24.73;13.20;;;;;;;7.64;82.51;100882.38;5018953;28;20434;-86
2021/11/17 05:08:26;;;;;;;26.42;12.77;;;;;;;7.57;82.11;100880.75;5032133;28;20520;-86
2021/11/17 05:11:03;;;;;;;23.25;14.20;;;;;;;7.56;82.76;100882.63;5014958;28;20415;-86
2021/11/17 05:13:31;;;;;;;26.45;12.60;;;;;;;7.56;82.53;100884.50;5026681;28;20415;-88
2021/11/17 05:16:32;;;;;;;25.10;13.73;;;;;;;7.58;82.80;100885.09;5032762;28;20542;-87
2021/11/17 05:19:12;;;;;;;24.67;13.13;;;;;;;7.62;82.49;100889.03;4999297;28;20935;-87
2021/11/17 05:22:05;;;;;;;25.88;14.10;;;;;;;7.62;82.43;100895.25;5031841;28;20498;-86
2021/11/17 05:25:04;;;;;;;26.65;14.50;;;;;;;7.62;81.93;100889.84;5029565;28;20453;-86
2021/11/17 05:27:58;;;;;;;28.42;14.55;;;;;;;7.61;82.55;100895.44;5037067;28;20399;-85
2021/11/17 05:30:57;;;;;;;25.42;13.77;;;;;;;7.60;82.50;100888.41;5018442;28;20418;-88
2021/11/17 05:33:35;;;;;;;27.33;15.95;;;;;;;7.54;82.51;100902.78;5007241;28;20911;-86
2021/11/17 05:36:13;;;;;;;25.95;14.25;;;;;;;7.45;82.88;100904.88;5020838;28;20412;-86
2021/11/17 05:38:57;;;;;;;23.42;13.30;;;;;;;7.47;83.55;100908.19;5027968;28;20770;-86
2021/11/17 05:42:00;;;;;;;21.17;12.93;;;;;;;7.47;83.53;100907.38;4997157;28;20969;-87
2021/11/17 05:44:59;;;;;;;21.67;12.18;;;;;;;7.50;83.80;100915.03;5028553;28;20433;-86
2021/11/17 05:47:43;;;;;;;28.05;14.35;;;;;;;7.50;83.06;100915.84;5026984;28;20419;-83
2021/11/17 05:50:49;;;;;;;23.35;12.90;;;;;;;7.55;83.24;100917.88;4999341;28;20732;-85
2021/11/17 05:54:03;;;;;;;22.47;13.00;;;;;;;7.53;83.54;100925.38;5026364;28;20490;-79
2021/11/17 05:56:50;;;;;;;24.48;13.60;;;;;;;7.51;83.34;100919.38;4985381;28;20473;-88
2021/11/17 06:03:04;;;;;;;25.92;16.92;;;;;;;7.54;82.84;100930.53;5017496;28;20441;-88
2021/11/17 06:05:41;;;;;;;29.05;18.52;;;;;;;7.56;83.12;100931.19;5030760;28;20759;-86
2021/11/17 06:08:06;;;;;;;28.60;15.40;;;;;;;7.57;82.91;100932.84;5023929;28;20411;-85
2021/11/17 06:10:42;;;;;;;19.17;11.57;;;;;;;7.57;82.75;100932.84;5027402;28;20417;-89
2021/11/17 06:13:10;;;;;;;20.27;11.80;;;;;;;7.55;83.38;100932.22;5029615;28;20405;-87
2021/11/17 06:15:37;;;;;;;17.67;10.82;;;;;;;7.53;83.17;100930.78;5031021;28;20752;-87
2021/11/17 06:18:05;;;;;;;21.77;11.77;;;;;;;7.53;83.21;100928.06;5029882;28;20778;-85
2021/11/17 06:20:30;;;;;;;20.33;12.95;;;;;;;7.50;83.13;100939.28;5026505;28;20984;-85
2021/11/17 06:23:01;;;;;;;20.60;12.73;;;;;;;7.50;83.22;100942.81;5017202;28;20504;-88
2021/11/17 06:25:29;;;;;;;21.33;12.80;;;;;;;7.52;83.13;100945.28;5024988;28;20785;-86
2021/11/17 06:28:03;;;;;;;20.73;11.63;;;;;;;7.53;82.96;100955.88;5031403;28;20407;-86
2021/11/17 06:30:31;;;;;;;21.90;12.45;;;;;;;7.50;82.73;100958.16;5030353;28;20747;-87
2021/11/17 06:32:57;;;;;;;25.33;13.75;;;;;;;7.49;83.05;100957.34;5028892;28;20866;-86
2021/11/17 06:35:24;;;;;;;23.00;12.10;;;;;;;7.51;82.93;100957.13;5033546;28;20471;-85
2021/11/17 06:37:50;;;;;;;26.85;13.40;;;;;;;7.49;83.13;100957.34;5030954;28;20828;-86
2021/11/17 06:40:18;;;;;;;39.15;16.23;;;;;;;7.48;82.99;100962.94;5029390;28;20415;-86
2021/11/17 06:42:52;;;;;;;32.30;14.90;;;;;;;7.44;83.07;100965.25;5030409;28;20431;-86
2021/11/17 06:45:24;;;;;;;35.60;14.02;;;;;;;7.46;82.99;100973.94;5020600;28;20414;-87
2021/11/17 06:47:50;;;;;;;29.25;14.25;;;;;;;7.45;82.89;100974.97;5034095;28;20422;-86
2021/11/17 06:50:18;;;;;;;28.48;13.68;;;;;;;7.43;82.83;100973.53;5031149;28;20924;-86
2021/11/17 06:52:44;;;;;;;21.37;11.73;;;;;;;7.44;83.25;100978.72;5032857;28;20715;-87
2021/11/17 06:55:10;;;;;;;19.23;10.90;;;;;;;7.42;82.67;100980.78;5026372;28;20399;-85
2021/11/17 06:57:36;;;;;;;19.95;11.73;;;;;;;7.38;82.72;100984.09;5032384;28;20418;-85
2021/11/17 07:00:05;;;;;;;18.52;10.88;;;;;;;7.39;82.74;100997.41;5041260;28;20398;-86
2021/11/17 07:02:31;;;;;;;16.80;9.95;;;;;;;7.40;82.82;100998.22;5034393;28;20423;-87
2021/11/17 07:04:56;;;;;;;18.10;9.83;;;;;;;7.38;83.21;101002.97;5034978;28;20446;-86
2021/11/17 07:07:21;;;;;;;17.43;9.67;;;;;;;7.43;82.60;101001.34;5031379;28;20457;-86
2021/11/17 07:09:46;;;;;;;15.40;9.23;;;;;;;7.41;82.66;101006.09;5034909;28;20874;-86
2021/11/17 07:12:12;;;;;;;14.77;9.40;;;;;;;7.42;82.88;101018.53;5035238;28;20399;-86
2021/11/17 07:14:39;;;;;;;14.52;8.07;;;;;;;7.43;82.07;101022.91;5025713;28;20422;-86
2021/11/17 07:17:05;;;;;;;12.07;8.27;;;;;;;7.38;81.43;101027.25;5031689;28;20402;-85
2021/11/17 07:19:31;;;;;;;17.00;8.57;;;;;;;7.40;81.79;101022.50;5033030;28;20414;-86
2021/11/17 07:21:59;;;;;;;15.50;7.85;;;;;;;7.35;82.12;101023.13;5033341;28;20415;-85
2021/11/17 07:24:26;;;;;;;13.63;7.78;;;;;;;7.40;81.87;101023.34;5017125;28;20410;-86
2021/11/17 07:26:51;;;;;;;10.60;6.97;;;;;;;7.38;81.66;101030.78;5033438;28;20875;-86
2021/11/17 07:29:16;;;;;;;12.80;7.70;;;;;;;7.39;81.19;101032.44;5030542;28;20399;-86
2021/11/17 07:31:43;;;;;;;10.73;7.57;;;;;;;7.40;81.16;101038.69;5034528;28;20398;-86
2021/11/17 07:34:08;;;;;;;10.05;6.85;;;;;;;7.44;81.12;101048.00;5028249;28;20423;-86
2021/11/17 07:36:34;;;;;;;9.20;6.67;;;;;;;7.39;80.52;101042.41;5034166;28;20403;-86
2021/11/17 07:39:00;;;;;;;9.43;6.55;;;;;;;7.41;80.39;101048.44;5032352;28;20473;-87
2021/11/17 07:41:26;;;;;;;8.07;6.00;;;;;;;7.37;79.75;101053.41;5030983;28;20894;-87
2021/11/17 07:43:51;;;;;;;10.57;7.10;;;;;;;7.40;80.00;101063.78;5032312;28;20909;-84
2021/11/17 07:46:17;;;;;;;10.05;7.10;;;;;;;7.38;80.15;101063.13;5033784;28;20481;-84
2021/11/17 07:48:42;;;;;;;10.87;7.93;;;;;;;7.36;80.18;101076.00;5033117;28;20774;-84
2021/11/17 07:51:07;;;;;;;10.17;6.67;;;;;;;7.41;79.83;101072.69;5034043;28;20871;-85
2021/11/17 07:53:34;;;;;;;8.57;6.88;;;;;;;7.37;79.69;101085.78;5031653;28;20410;-84
2021/11/17 07:56:01;;;;;;;6.55;5.70;;;;;;;7.36;79.94;101083.28;5033690;28;20430;-84
2021/11/17 07:58:31;;;;;;;6.97;5.25;;;;;;;7.31;80.34;101086.56;5034193;28;20391;-84
2021/11/17 08:00:58;;;;;;;6.40;4.50;;;;;;;7.31;80.13;101090.09;5034057;28;20383;-84
2021/11/17 08:03:27;;;;;;;5.55;4.78;;;;;;;7.32;80.42;101093.63;5032105;28;20407;-84
2021/11/17 08:05:54;;;;;;;4.93;4.45;;;;;;;7.31;80.05;101094.66;5030433;28;20425;-83
2021/11/17 08:08:21;;;;;;;5.13;4.03;;;;;;;7.32;79.63;101096.34;5033911;28;20409;-84
2021/11/17 08:10:47;;;;;;;5.27;4.77;;;;;;;7.37;80.12;101093.03;5032438;28;20482;-83
2021/11/17 08:13:13;;;;;;;5.85;4.80;;;;;;;7.32;79.73;101089.06;5033743;28;20453;-85
2021/11/17 08:15:38;;;;;;;4.95;3.90;;;;;;;7.31;79.63;101090.09;5033301;28;20407;-84
2021/11/17 08:18:05;;;;;;;5.10;4.03;;;;;;;7.40;79.34;101082.66;5030969;28;20411;-84
2021/11/17 08:20:30;;;;;;;6.05;3.95;;;;;;;7.48;78.75;101086.97;5033271;28;20406;-84
2021/11/17 08:22:58;;;;;;;5.47;4.00;;;;;;;7.55;78.82;101090.50;5033430;28;20485;-84
2021/11/17 08:25:27;;;;;;;4.53;3.38;;;;;;;7.56;78.42;101084.06;5033388;28;20406;-84
2021/11/17 08:27:53;;;;;;;5.38;3.15;;;;;;;7.59;78.82;101087.19;5032993;28;20770;-84
2021/11/17 08:30:21;;;;;;;5.32;4.75;;;;;;;7.63;78.25;101091.13;5033547;28;20430;-84
2021/11/17 08:32:46;;;;;;;6.70;5.68;;;;;;;7.72;78.26;101086.31;5028608;28;20743;-84
2021/11/17 08:35:16;;;;;;;8.07;5.20;;;;;;;7.77;77.57;101091.94;5033145;28;20399;-84
2021/11/17 08:37:42;;;;;;;11.30;8.63;;;;;;;7.80;77.80;101083.41;5033320;28;20471;-83
2021/11/17 08:40:14;;;;;;;14.57;11.82;;;;;;;7.91;77.81;101090.84;5033343;28;20441;-84
2021/11/17 08:42:41;;;;;;;5.00;4.53;;;;;;;7.97;76.84;101084.59;5033034;28;20419;-84
2021/11/17 08:45:07;;;;;;;7.50;5.05;;;;;;;8.05;77.35;101095.16;5032786;28;20845;-84
2021/11/17 08:47:33;;;;;;;8.20;5.65;;;;;;;8.08;76.88;101093.91;5031276;28;20446;-84
2021/11/17 08:49:59;;;;;;;5.67;4.60;;;;;;;8.05;76.68;101095.16;5033013;28;20387;-84
2021/11/17 08:52:25;;;;;;;5.40;4.47;;;;;;;8.01;77.01;101093.09;5033075;28;20383;-84
2021/11/17 08:54:50;;;;;;;4.50;4.10;;;;;;;8.01;77.02;101102.03;5023219;28;20422;-84
2021/11/17 08:57:18;;;;;;;4.27;3.87;;;;;;;8.06;76.61;101098.69;5032542;28;20447;-84
2021/11/17 08:59:46;;;;;;;4.80;4.32;;;;;;;8.12;76.84;101095.13;5032846;28;20968;-84
2021/11/17 09:02:12;;;;;;;5.80;4.72;;;;;;;8.22;76.28;101103.63;5030954;28;20417;-85
2021/11/17 09:04:37;;;;;;;5.63;5.13;;;;;;;8.21;76.72;101101.94;5032451;28;20481;-85
2021/11/17 09:07:04;;;;;;;6.78;5.68;;;;;;;8.19;76.75;101095.94;5032300;28;20862;-84
2021/11/17 09:09:29;;;;;;;7.00;5.30;;;;;;;8.26;76.57;101104.84;5031506;28;20473;-84
2021/11/17 09:11:55;;;;;;;4.90;4.33;;;;;;;8.26;76.50;101110.25;5032540;28;20398;-84
2021/11/17 09:14:20;;;;;;;4.70;3.80;;;;;;;8.40;75.61;101111.06;5032524;28;20446;-84
2021/11/17 09:16:46;;;;;;;3.92;3.30;;;;;;;8.40;74.16;101114.56;5022807;28;20403;-84
2021/11/17 09:19:12;;;;;;;3.15;2.95;;;;;;;8.40;74.36;101101.06;5032620;28;20431;-83
2021/11/17 09:21:41;;;;;;;3.85;3.42;;;;;;;8.47;74.16;101109.13;5030792;28;20418;-84
2021/11/17 09:24:09;;;;;;;4.15;3.03;;;;;;;8.57;74.14;101118.44;5032030;28;20407;-83
2021/11/17 09:26:36;;;;;;;5.75;3.92;;;;;;;8.80;73.77;101118.72;5032124;28;20878;-84
2021/11/17 09:29:03;;;;;;;3.42;3.13;;;;;;;9.11;72.52;101117.91;5032342;28;20387;-83
2021/11/17 09:31:34;;;;;;;3.13;2.92;;;;;;;9.39;71.34;101118.28;5032125;28;20404;-84
2021/11/17 09:34:00;;;;;;;2.30;2.10;;;;;;;9.65;69.97;101124.53;5032314;28;20478;-84
2021/11/17 09:36:28;;;;;;;3.10;2.80;;;;;;;9.69;68.83;101123.84;5025303;28;20503;-84
2021/11/17 09:38:55;;;;;;;2.55;2.33;;;;;;;9.59;69.02;101133.53;5032062;28;20403;-84
2021/11/17 09:41:43;;;;;;;2.03;1.48;;;;;;;9.48;69.21;101129.69;5031294;28;20399;-83
2021/11/17 09:44:25;;;;;;;1.98;1.88;;;;;;;9.46;68.84;101129.06;5015660;28;20419;-84
2021/11/17 09:46:52;;;;;;;2.13;1.88;;;;;;;9.34;69.05;101136.25;5030535;28;20388;-84
2021/11/17 09:49:23;;;;;;;1.70;1.60;;;;;;;9.26;69.83;101123.81;5030473;28;20493;-84
2021/11/17 09:51:57;;;;;;;2.08;1.92;;;;;;;9.26;69.38;101126.50;5029490;28;20806;-84
2021/11/17 09:54:28;;;;;;;3.03;2.15;;;;;;;9.01;69.57;101141.91;5031899;28;20395;-82
2021/11/17 09:57:13;;;;;;;3.20;2.15;;;;;;;8.91;70.38;101127.19;5031856;28;20397;-83
2021/11/17 10:00:07;;;;;;;3.67;2.50;;;;;;;8.95;70.83;101141.94;5031100;28;20517;-83
2021/11/17 10:03:02;;;;;;;2.85;2.60;;;;;;;9.07;71.19;101134.78;5031287;28;20411;-83
2021/11/17 10:05:53;;;;;;;3.15;2.08;;;;;;;9.06;71.08;101122.28;5030219;28;20893;-83
2021/11/17 10:11:40;;;;;;;2.40;2.20;;;;;;;9.09;71.28;101122.69;5031915;28;20422;-83
2021/11/17 10:14:06;;;;;;;2.47;2.00;;;;;;;9.08;70.90;101137.28;5018704;28;20403;-83
2021/11/17 10:16:32;;;;;;;3.28;2.47;;;;;;;9.04;70.72;101130.63;5036711;28;20398;-83
2021/11/17 10:19:13;;;;;;;3.05;2.58;;;;;;;9.04;70.85;101138.75;5034319;28;20948;-83
2021/11/17 10:21:39;;;;;;;2.17;1.80;;;;;;;8.92;70.68;101142.38;5041883;28;20442;-83
2021/11/17 10:24:17;;;;;;;1.73;1.63;;;;;;;8.92;70.78;101148.63;5036957;28;20392;-84
2021/11/17 10:26:48;;;;;;;2.47;2.00;;;;;;;8.86;70.76;101150.28;5040344;28;20424;-83
2021/11/17 10:29:31;;;;;;;3.08;2.05;;;;;;;8.95;70.03;101148.19;5031446;28;20406;-84
2021/11/17 10:32:14;;;;;;;2.08;1.98;;;;;;;8.87;70.86;101148.41;5031634;28;20743;-83
2021/11/17 10:34:52;;;;;;;2.15;2.00;;;;;;;8.82;71.49;101151.75;5031754;28;20407;-84
2021/11/17 10:37:58;;;;;;;2.63;2.33;;;;;;;8.79;70.77;101146.78;5040931;28;20405;-84
2021/11/17 10:40:27;;;;;;;2.00;1.90;;;;;;;8.92;70.36;101136.97;4998421;28;20413;-83
2021/11/17 10:43:06;;;;;;;2.97;2.60;;;;;;;8.94;70.83;101145.69;5036311;28;20533;-83
2021/11/17 10:45:45;;;;;;;3.65;2.90;;;;;;;8.95;70.00;101144.63;5037649;28;20423;-84
2021/11/17 10:48:28;;;;;;;6.18;2.30;;;;;;;8.91;70.07;101135.31;5024970;28;20897;-84
2021/11/17 10:51:06;;;;;;;2.25;2.08;;;;;;;8.81;70.34;101142.00;5039403;28;20434;-83
2021/11/17 10:53:34;;;;;;;2.40;2.28;;;;;;;8.84;70.08;101149.69;5042286;28;20396;-83
2021/11/17 10:56:07;;;;;;;2.05;1.70;;;;;;;8.62;70.34;101155.63;5031372;28;20384;-83
2021/11/17 10:58:35;;;;;;;2.47;2.20;;;;;;;8.55;70.35;101160.22;5031296;28;20415;-84
2021/11/17 11:01:14;;;;;;;4.25;2.75;;;;;;;8.50;70.51;101157.31;5031158;28;20511;-83
2021/11/17 11:03:44;;;;;;;2.50;2.30;;;;;;;8.36;70.28;101159.28;5029591;28;20514;-83
2021/11/17 11:06:13;;;;;;;4.00;2.97;;;;;;;8.42;70.52;101158.41;5031284;28;20500;-83
2021/11/17 11:09:11;;;;;;;;;;;;;;;;;;;;;
2021/11/17 11:11:41;;;;;;;3.00;2.80;;;;;;;8.52;70.33;101155.25;5019485;28;20415;-85
2021/11/17 11:14:14;;;;;;;2.95;2.50;;;;;;;8.53;70.03;101167.72;5030921;28;20426;-83
2021/11/17 11:17:11;;;;;;;3.90;2.45;;;;;;;8.50;70.63;101155.47;5030884;28;20736;-84
2021/11/17 11:19:36;;;;;;;2.47;2.28;;;;;;;8.46;70.96;101146.16;5009998;28;20404;-84
2021/11/17 11:22:19;;;;;;;3.00;2.70;;;;;;;8.47;70.91;101160.47;5028356;28;20463;-83
2021/11/17 11:24:46;;;;;;;2.83;2.50;;;;;;;8.47;71.16;101163.16;5041364;28;20471;-83
2021/11/17 11:27:32;;;;;;;3.28;2.47;;;;;;;8.42;71.17;101161.13;5028685;28;20407;-83
2021/11/17 11:30:03;;;;;;;2.90;2.70;;;;;;;8.47;71.57;101157.75;5031871;28;20403;-84
2021/11/17 11:32:28;;;;;;;2.58;2.38;;;;;;;8.40;70.41;101157.78;5045918;28;20403;-83
2021/11/17 11:34:59;;;;;;;2.67;2.17;;;;;;;8.28;70.23;101157.63;5034527;28;20460;-83
2021/11/17 11:37:24;;;;;;;1.48;1.40;;;;;;;8.21;70.85;101164.88;5034416;28;20399;-83
2021/11/17 11:40:01;;;;;;;2.20;2.10;;;;;;;8.16;70.45;101156.59;5032001;28;20782;-84
2021/11/17 11:42:51;;;;;;;1.73;1.40;;;;;;;8.10;70.69;101152.03;5033896;28;20414;-84
2021/11/17 11:45:29;;;;;;;1.90;1.80;;;;;;;8.16;71.39;101150.38;5034281;28;20510;-83
2021/11/17 11:47:59;;;;;;;1.75;1.65;;;;;;;8.16;70.72;101155.78;5020223;28;20816;-83
2021/11/17 11:50:30;;;;;;;2.00;1.90;;;;;;;8.18;70.73;101154.50;5034765;28;20417;-83
2021/11/17 11:53:02;;;;;;;4.15;2.50;;;;;;;8.21;71.23;101158.66;5046040;28;20423;-83
2021/11/17 11:55:50;;;;;;;2.72;2.53;;;;;;;8.30;70.39;101160.09;5035452;28;20525;-83
2021/11/17 11:58:18;;;;;;;2.55;2.45;;;;;;;8.29;70.25;101156.59;5034061;28;20769;-83
2021/11/17 12:00:46;;;;;;;2.92;2.58;;;;;;;8.38;70.50;101157.19;5030750;28;20415;-84
2021/11/17 12:03:17;;;;;;;2.80;2.60;;;;;;;8.44;70.13;101161.72;5032135;28;20415;-84
2021/11/17 12:06:01;;;;;;;3.13;2.92;;;;;;;8.44;70.50;101169.00;5032435;28;20770;-83
2021/11/17 12:08:54;;;;;;;2.97;2.78;;;;;;;8.41;70.76;101158.63;5030871;28;20414;-84
2021/11/17 12:11:26;;;;;;;2.90;2.80;;;;;;;8.29;70.32;101163.88;5028263;28;20395;-83
2021/11/17 12:14:12;;;;;;;3.13;2.83;;;;;;;8.38;70.55;101169.84;5032896;28;20808;-83
2021/11/17 12:16:40;;;;;;;3.30;3.10;;;;;;;8.47;70.65;101164.00;5033698;28;20482;-81
2021/11/17 12:19:07;;;;;;;2.67;2.50;;;;;;;8.52;69.94;101157.97;5033648;28;20948;-83
2021/11/17 12:21:38;;;;;;;3.30;2.97;;;;;;;8.66;69.99;101151.47;5033205;28;20450;-83
2021/11/17 12:24:20;;;;;;;4.18;3.35;;;;;;;8.80;69.48;101151.16;5031243;28;20410;-83
2021/11/17 12:26:56;;;;;;;3.27;2.47;;;;;;;8.96;68.91;101152.50;5033396;28;20490;-83
2021/11/17 12:29:25;;;;;;;4.30;2.60;;;;;;;9.01;67.97;101157.28;5021415;28;20395;-81
2021/11/17 12:31:57;;;;;;;3.33;2.25;;;;;;;8.96;68.31;101152.50;5033395;28;20427;-82
2021/11/17 12:34:37;;;;;;;2.45;2.25;;;;;;;8.83;68.26;101142.63;5030763;28;20482;-82
2021/11/17 12:37:27;;;;;;;2.28;2.17;;;;;;;8.89;67.85;101138.25;5033462;28;20395;-81
2021/11/17 12:40:11;;;;;;;5.40;2.38;;;;;;;9.02;67.15;101132.75;5032087;28;20485;-80
2021/11/17 12:42:50;;;;;;;2.22;2.13;;;;;;;9.07;67.96;101132.06;5028408;28;20408;-81
2021/11/17 12:45:19;;;;;;;3.00;2.80;;;;;;;9.20;67.56;101126.56;5031432;28;20430;-80
2021/11/17 12:47:51;;;;;;;3.45;2.70;;;;;;;9.23;66.99;101124.25;5031039;28;20411;-80
2021/11/17 12:50:24;;;;;;;2.92;2.72;;;;;;;9.13;67.29;101107.69;5033150;28;20383;-80
2021/11/17 12:53:14;;;;;;;3.80;3.33;;;;;;;8.91;68.00;101110.97;5030255;28;20405;-80
2021/11/17 12:55:44;;;;;;;2.67;2.50;;;;;;;8.83;68.52;101110.19;5038947;28;20416;-80
2021/11/17 12:58:15;;;;;;;4.53;3.10;;;;;;;9.01;69.15;101111.31;5037065;28;20486;-79
2021/11/17 13:01:10;;;;;;;3.35;3.10;;;;;;;9.32;68.04;101114.81;5029711;28;20606;-80
2021/11/17 13:03:47;;;;;;;4.25;3.15;;;;;;;9.65;66.51;101116.44;5031037;28;20411;-80
2021/11/17 13:06:31;;;;;;;3.85;2.97;;;;;;;9.87;66.33;101112.22;5032380;28;20415;-79
2021/11/17 13:09:20;;;;;;;3.97;2.90;;;;;;;10.06;65.85;101113.91;5032846;28;20387;-78
2021/11/17 13:12:01;;;;;;;4.53;4.20;;;;;;;10.04;65.30;101109.75;5032628;28;20482;-81
2021/11/17 13:14:34;;;;;;;6.47;4.53;;;;;;;10.11;65.46;101107.81;5016754;28;20409;-80
2021/11/17 13:17:16;;;;;;;4.30;3.70;;;;;;;10.20;65.04;101106.47;5029755;28;20415;-80
2021/11/17 13:19:45;;;;;;;5.65;3.97;;;;;;;10.32;64.94;101124.44;5020601;28;20401;-80
2021/11/17 13:22:39;;;;;;;3.38;3.10;;;;;;;10.24;65.21;101126.66;5029838;28;20424;-80
2021/11/17 13:25:10;;;;;;;3.40;3.20;;;;;;;9.95;65.80;101124.63;5024890;28;20435;-80
2021/11/17 13:27:41;;;;;;;5.18;3.25;;;;;;;9.74;66.50;101126.75;5032473;28;20697;-80
2021/11/17 13:30:44;;;;;;;3.72;3.40;;;;;;;9.74;66.64;101126.75;5029922;28;20467;-80
2021/11/17 13:33:23;;;;;;;4.55;3.92;;;;;;;9.68;66.80;101130.31;5015519;28;20413;-80
2021/11/17 13:36:08;;;;;;;4.43;4.00;;;;;;;9.62;66.22;101124.97;5024543;28;20410;-80
2021/11/17 13:38:40;;;;;;;4.73;4.00;;;;;;;9.57;66.97;101128.34;5030440;28;20441;-80
2021/11/17 13:41:09;;;;;;;4.37;3.93;;;;;;;9.64;67.50;101148.06;5032092;28;20432;-79
2021/11/17 13:43:36;;;;;;;4.50;3.50;;;;;;;9.72;67.00;101149.63;5022675;28;20403;-79
2021/11/17 13:46:06;;;;;;;3.70;3.40;;;;;;;9.72;67.36;101147.75;5036420;28;20434;-79
2021/11/17 13:48:35;;;;;;;5.82;4.05;;;;;;;9.63;67.31;101145.56;5030805;28;20494;-80
2021/11/17 13:51:01;;;;;;;4.38;3.97;;;;;;;9.50;67.20;101134.84;5031816;28;20862;-80
2021/11/17 13:53:26;;;;;;;7.03;4.27;;;;;;;9.44;67.56;101136.59;5031564;28;20458;-80
2021/11/17 13:56:01;;;;;;;4.35;4.00;;;;;;;9.46;67.35;101134.47;5031854;28;20403;-80
2021/11/17 13:58:26;;;;;;;4.43;4.03;;;;;;;9.48;67.85;101143.22;5028059;28;20407;-80
2021/11/17 14:01:16;;;;;;;4.78;4.38;;;;;;;9.63;67.59;101154.53;5032149;28;20749;-81
2021/11/17 14:03:41;;;;;;;28.15;16.40;;;;;;;9.59;67.17;101147.06;5010248;28;20480;-81
2021/11/17 14:06:11;;;;;;;8.15;5.80;;;;;;;9.50;67.27;101142.97;5031579;28;20454;-81
2021/11/17 14:08:37;;;;;;;4.40;4.00;;;;;;;9.37;68.17;101147.44;5030831;28;20421;-80
2021/11/17 14:11:04;;;;;;;4.28;3.92;;;;;;;9.17;69.05;101148.66;5029897;28;20485;-80
2021/11/17 14:13:30;;;;;;;4.25;3.95;;;;;;;9.23;69.02;101142.34;5028775;28;20467;-80
2021/11/17 14:15:56;;;;;;;4.57;4.17;;;;;;;9.21;68.69;101160.69;5023407;28;20445;-80
2021/11/17 14:18:22;;;;;;;5.25;4.30;;;;;;;9.16;68.72;101149.69;5022410;28;20403;-80
2021/11/17 14:20:48;;;;;;;5.68;5.07;;;;;;;9.12;68.89;101148.47;5030807;28;20936;-83
2021/11/17 14:23:15;;;;;;;8.55;6.97;;;;;;;9.15;69.15;101150.75;5031763;28;20395;-84
2021/11/17 14:25:43;;;;;;;5.63;5.13;;;;;;;9.17;68.62;101164.88;5029830;28;20442;-83
2021/11/17 14:28:15;;;;;;;5.93;4.78;;;;;;;9.19;69.06;101165.47;5034960;28;20878;-83
2021/11/17 14:30:51;;;;;;;6.50;4.47;;;;;;;9.17;68.85;101164.88;5031486;28;20395;-82
2021/11/17 14:33:20;;;;;;;3.90;3.60;;;;;;;9.16;69.08;101163.19;5034328;28;20398;-81
2021/11/17 14:35:47;;;;;;;4.30;3.90;;;;;;;9.15;69.02;101157.00;5025663;28;20933;-81
2021/11/17 14:39:01;;;;;;;4.10;3.63;;;;;;;9.13;68.75;101163.63;5012520;28;20413;-81
2021/11/17 14:41:27;;;;;;;3.60;3.35;;;;;;;9.06;69.45;101170.97;5003651;28;20526;-81
2021/11/17 14:43:52;;;;;;;3.72;3.42;;;;;;;8.97;69.55;101173.09;5034691;28;20395;-82
2021/11/17 14:46:17;;;;;;;4.10;3.80;;;;;;;8.92;69.76;101166.69;5029144;28;20410;-77